Time;durP1;ratioP1;P1;durP2;ratioP2;P2;SDS_P1;SDS_P2;PMS_P1;PMS_P2;Temp;Humidity;BMP_temperature;BMP_pressure;BME280_temperature;BME280_humidity;BME280_pressure;Samples;Min_cycle;Max_cycle;Signal;HPM_P1;HPM_P2
2022/06/09 00:00:01;;;;;;;;;;;;;;;13.32;92.42;100790.34;5021285;28;19931;-61
2022/06/09 00:02:29;;;;;;;;;;;;;;;13.28;92.54;100782.91;5013538;28;20399;-61
2022/06/09 00:04:55;;;;;;;;;;;;;;;13.38;92.34;100783.47;5022698;28;19931;-61
2022/06/09 00:07:21;;;;;;;;;;;;;;;13.26;92.41;100784.91;5019063;28;19929;-62
2022/06/09 00:09:58;;;;;;;;;;;;;;;13.26;92.74;100796.41;5018536;28;19975;-61
2022/06/09 00:12:24;;;;;;;;;;;;;;;13.27;92.64;100798.06;5040327;28;19925;-61
2022/06/09 00:14:49;;;;;;;;;;;;;;;13.28;92.79;100804.22;5016180;28;19925;-61
2022/06/09 00:17:15;;;;;;;;;;;;;;;13.26;92.68;100801.72;5018794;28;19925;-61
2022/06/09 00:19:41;;;;;;;;;;;;;;;13.24;92.74;100797.59;5043427;28;19925;-61
2022/06/09 00:22:06;;;;;;;;;;;;;;;13.24;92.87;100803.75;5043126;28;20414;-61
2022/06/09 00:24:31;;;;;;;;;;;;;;;13.22;92.79;100795.09;5059922;28;20011;-61
2022/06/09 00:26:57;;;;;;;;;;;;;;;13.23;92.88;100802.06;5063406;28;19935;-61
2022/06/09 00:29:22;;;;;;;;;;;;;;;13.26;92.83;100801.72;5060865;28;19939;-60
2022/06/09 00:31:47;;;;;;;;;;;;;;;13.28;92.80;100805.03;5040197;28;19924;-61
2022/06/09 00:34:12;;;;;;;;;;;;;;;13.26;92.96;100801.72;5061359;28;20375;-61
2022/06/09 00:36:38;;;;;;;;;;;;;;;13.32;92.82;100803.69;5043841;28;19920;-61
2022/06/09 00:39:03;;;;;;;;;;;;;;;13.25;92.86;100799.25;5059423;28;19928;-60
2022/06/09 00:41:29;;;;;;;;;;;;;;;13.27;93.00;100803.38;5060507;28;19935;-61
2022/06/09 00:44:13;;;;;;;;;;;;;;;13.24;93.17;100802.91;5061982;28;19925;-61
2022/06/09 00:46:39;;;;;;;;;;;;;;;13.19;93.09;100806.13;5062412;28;20513;-61
2022/06/09 00:49:09;;;;;;;;;;;;;;;13.16;92.98;100801.16;5054505;28;19929;-61
2022/06/09 00:51:37;;;;;;;;;;;;;;;13.23;93.10;100811.91;5057826;28;19983;-61
2022/06/09 00:54:10;;;;;;;;;;;;;;;13.15;93.07;100820.78;5061140;28;19929;-61
2022/06/09 00:56:37;;;;;;;;;;;;;;;13.16;93.22;100814.47;5062184;28;19955;-60
2022/06/09 00:59:02;;;;;;;;;;;;;;;13.13;93.33;100817.50;5059657;28;19928;-61
2022/06/09 01:01:28;;;;;;;;;;;;;;;13.09;93.26;100813.53;5054406;28;20413;-60
2022/06/09 01:04:05;;;;;;;;;;;;;;;13.02;92.93;100811.59;5062955;28;20478;-61
2022/06/09 01:06:33;;;;;;;;;;;;;;;13.03;93.05;100815.91;5057838;28;19931;-61
2022/06/09 01:09:04;;;;;;;;;;;;;;;13.04;93.06;100814.88;5059317;28;19931;-60
2022/06/09 01:11:30;;;;;;;;;;;;;;;13.02;93.20;100811.59;5060096;28;20790;-61
2022/06/09 01:13:57;;;;;;;;;;;;;;;13.03;93.35;100813.22;5054976;28;19928;-61
2022/06/09 01:16:37;;;;;;;;;;;;;;;13.01;93.11;100811.75;5054106;28;19960;-60
2022/06/09 01:19:18;;;;;;;;;;;;;;;13.05;93.18;100821.88;5058345;28;19978;-60
2022/06/09 01:21:43;;;;;;;;;;;;;;;13.01;93.33;100817.91;5055605;28;20019;-61
2022/06/09 01:24:11;;;;;;;;;;;;;;;13.12;93.86;100824.66;5054613;28;20072;-61
2022/06/09 01:26:56;;;;;;;;;;;;;;;13.07;93.43;100820.88;5056501;28;19931;-61
2022/06/09 01:29:28;;;;;;;;;;;;;;;12.99;93.37;100817.28;5062179;28;20019;-61
2022/06/09 01:31:59;;;;;;;;;;;;;;;12.96;93.52;100828.25;5060500;28;19928;-61
2022/06/09 01:34:30;;;;;;;;;;;;;;;13.00;93.58;100828.72;5060290;28;19931;-61
2022/06/09 01:37:03;;;;;;;;;;;;;;;13.00;93.85;100837.56;5057499;28;19935;-61
2022/06/09 01:39:30;;;;;;;;;;;;;;;12.97;93.44;100832.56;5062820;28;19925;-60
2022/06/09 01:41:55;;;;;;;;;;;;;;;12.98;93.81;100830.75;5063161;28;19924;-61
2022/06/09 01:44:20;;;;;;;;;;;;;;;12.96;93.56;100828.25;5053925;28;20018;-61
2022/06/09 01:46:48;;;;;;;;;;;;;;;12.98;93.74;100830.75;5058514;28;20814;-61
2022/06/09 01:49:17;;;;;;;;;;;;;;;13.08;93.47;100836.66;5060418;28;19924;-61
2022/06/09 01:51:44;;;;;;;;;;;;;;;12.99;93.58;100848.38;5059963;28;19928;-61
2022/06/09 01:54:12;;;;;;;;;;;;;;;12.95;93.74;100853.22;5058704;28;20019;-60
2022/06/09 01:56:45;;;;;;;;;;;;;;;13.08;93.88;100846.47;5062747;28;19979;-61
2022/06/09 01:59:14;;;;;;;;;;;;;;;12.95;93.81;100857.72;5044620;28;19973;-61
2022/06/09 02:01:42;;;;;;;;;;;;;;;12.96;93.91;100849.56;5062007;28;19928;-61
2022/06/09 02:04:10;;;;;;;;;;;;;;;12.87;93.90;100843.47;5065333;28;19948;-61
2022/06/09 02:06:36;;;;;;;;;;;;;;;12.86;94.17;100846.28;5063762;28;19924;-60
2022/06/09 02:09:02;;;;;;;;;;;;;;;12.85;94.04;100847.31;5062063;28;20375;-61
2022/06/09 02:11:28;;;;;;;;;;;;;;;12.83;93.98;100854.63;5064612;28;19931;-61
2022/06/09 02:13:56;;;;;;;;;;;;;;;12.84;94.06;100848.31;5063031;28;19925;-61
2022/06/09 02:16:21;;;;;;;;;;;;;;;12.93;94.12;100860.53;5075252;28;20624;-61
2022/06/09 02:18:48;;;;;;;;;;;;;;;12.82;93.97;100858.31;5064872;28;20003;-60
2022/06/09 02:21:16;;;;;;;;;;;;;;;12.80;94.09;100860.31;5062456;28;19930;-60
2022/06/09 02:23:42;;;;;;;;;;;;;;;12.81;94.08;100860.13;5043064;28;19929;-61
2022/06/09 02:26:07;;;;;;;;;;;;;;;12.83;93.93;100857.31;5058520;28;20408;-61
2022/06/09 02:28:32;;;;;;;;;;;;;;;12.78;94.02;100858.66;5047066;28;20383;-61
2022/06/09 02:30:58;;;;;;;;;;;;;;;12.86;94.30;100871.09;5061254;28;20280;-61
2022/06/09 02:33:23;;;;;;;;;;;;;;;12.87;93.97;100871.88;5065187;28;20329;-61
2022/06/09 02:35:49;;;;;;;;;;;;;;;12.77;94.27;100878.28;5063495;28;19936;-61
2022/06/09 02:38:14;;;;;;;;;;;;;;;12.78;94.49;100873.78;5060056;28;19928;-60
2022/06/09 02:40:39;;;;;;;;;;;;;;;12.94;94.25;100877.34;5048767;28;19936;-60
2022/06/09 02:43:05;;;;;;;;;;;;;;;12.76;94.15;100881.97;5060805;28;20028;-60
2022/06/09 02:45:31;;;;;;;;;;;;;;;12.74;94.43;100883.13;5055620;28;20413;-61
2022/06/09 02:47:56;;;;;;;;;;;;;;;12.75;94.46;100890.94;5062804;28;20011;-61
2022/06/09 02:50:21;;;;;;;;;;;;;;;12.71;94.37;100889.63;5063943;28;19928;-60
2022/06/09 02:52:46;;;;;;;;;;;;;;;12.72;94.45;100891.28;5062788;28;19928;-61
2022/06/09 02:55:13;;;;;;;;;;;;;;;12.72;94.47;100891.28;5063562;28;19932;-61
2022/06/09 02:57:38;;;;;;;;;;;;;;;12.70;94.61;100895.97;5063231;28;19931;-61
2022/06/09 03:00:05;;;;;;;;;;;;;;;12.72;94.75;100891.28;5061714;28;19924;-60
2022/06/09 03:02:31;;;;;;;;;;;;;;;12.67;94.63;100898.94;5061427;28;19924;-60
2022/06/09 03:04:56;;;;;;;;;;;;;;;12.66;94.66;100902.63;5060904;28;19928;-61
2022/06/09 03:07:24;;;;;;;;;;;;;;;12.71;94.69;100905.59;5043239;28;20375;-61
2022/06/09 03:09:50;;;;;;;;;;;;;;;12.68;94.83;100916.56;5063551;28;20367;-60
2022/06/09 03:12:15;;;;;;;;;;;;;;;12.66;94.59;100913.25;5062821;28;19924;-61
2022/06/09 03:14:41;;;;;;;;;;;;;;;12.67;95.00;100917.56;5063937;28;19931;-61
2022/06/09 03:17:06;;;;;;;;;;;;;;;12.64;94.61;100921.41;5063374;28;19924;-60
2022/06/09 03:19:32;;;;;;;;;;;;;;;12.72;94.81;100925.88;5063061;28;19925;-61
2022/06/09 03:21:57;;;;;;;;;;;;;;;12.66;94.71;100931.88;5057666;28;19924;-61
2022/06/09 03:24:23;;;;;;;;;;;;;;;12.61;94.59;100936.88;5055560;28;19928;-61
2022/06/09 03:26:49;;;;;;;;;;;;;;;12.62;94.77;100939.38;5059652;28;20078;-61
2022/06/09 03:29:15;;;;;;;;;;;;;;;12.61;94.70;100936.88;5064237;28;19970;-61
2022/06/09 03:31:40;;;;;;;;;;;;;;;12.56;94.52;100945.41;5061918;28;19979;-61
2022/06/09 03:34:06;;;;;;;;;;;;;;;12.60;94.86;100945.88;5051690;28;20302;-61
2022/06/09 03:36:34;;;;;;;;;;;;;;;12.56;94.60;100948.06;5056109;28;19931;-60
2022/06/09 03:38:59;;;;;;;;;;;;;;;12.54;94.57;100951.88;5061595;28;19924;-61
2022/06/09 03:41:25;;;;;;;;;;;;;;;12.55;94.72;100956.19;5055953;28;20508;-61
2022/06/09 03:43:50;;;;;;;;;;;;;;;12.58;94.53;100963.84;5062359;28;19925;-61
2022/06/09 03:46:15;;;;;;;;;;;;;;;12.51;94.77;100969.84;5061435;28;19939;-60
2022/06/09 03:48:40;;;;;;;;;;;;;;;12.50;94.84;100973.50;5063419;28;20031;-61
2022/06/09 03:51:05;;;;;;;;;;;;;;;12.49;94.70;100969.19;5052476;28;19924;-61
2022/06/09 03:53:31;;;;;;;;;;;;;;;12.49;94.84;100971.03;5055873;28;20015;-61
2022/06/09 03:55:57;;;;;;;;;;;;;;;12.48;94.63;100970.19;5062121;28;19955;-61
2022/06/09 03:58:22;;;;;;;;;;;;;;;12.47;94.53;100984.50;5061310;28;19978;-61
2022/06/09 04:00:47;;;;;;;;;;;;;;;12.44;94.56;100979.50;5059309;28;19939;-61
2022/06/09 04:03:13;;;;;;;;;;;;;;;12.45;94.61;100981.19;5042326;28;19924;-63
2022/06/09 04:05:38;;;;;;;;;;;;;;;12.46;94.81;100989.97;5060932;28;19951;-61
2022/06/09 04:08:04;;;;;;;;;;;;;;;12.46;94.82;100997.94;5062613;28;19924;-61
2022/06/09 04:10:30;;;;;;;;;;;;;;;12.47;94.87;101000.44;5061073;28;19924;-61
2022/06/09 04:12:56;;;;;;;;;;;;;;;12.42;94.98;100992.16;5051396;28;20309;-61
2022/06/09 04:15:22;;;;;;;;;;;;;;;12.42;94.76;101001.94;5056022;28;19929;-61
2022/06/09 04:17:48;;;;;;;;;;;;;;;12.40;94.81;101003.94;5058212;28;19951;-61
2022/06/09 04:20:16;;;;;;;;;;;;;;;12.35;94.83;101001.81;5058751;28;19935;-61
2022/06/09 04:22:41;;;;;;;;;;;;;;;12.38;94.81;101012.09;5054877;28;20026;-62
2022/06/09 04:25:06;;;;;;;;;;;;;;;12.39;94.80;101016.44;5053122;28;20011;-61
2022/06/09 04:27:32;;;;;;;;;;;;;;;12.34;94.68;101010.78;5057572;28;20436;-61
2022/06/09 04:29:57;;;;;;;;;;;;;;;12.36;94.51;101014.94;5052327;28;19920;-62
2022/06/09 04:32:23;;;;;;;;;;;;;;;12.38;94.69;101017.41;5065934;28;20639;-61
2022/06/09 04:34:49;;;;;;;;;;;;;;;12.38;94.61;101018.25;5060956;28;20370;-61
2022/06/09 04:37:14;;;;;;;;;;;;;;;12.39;94.93;101027.06;5057554;28;19932;-61
2022/06/09 04:39:41;;;;;;;;;;;;;;;12.39;94.45;101027.06;5060567;28;19924;-61
2022/06/09 04:42:07;;;;;;;;;;;;;;;12.37;94.55;101026.38;5060468;28;19964;-61
2022/06/09 04:44:32;;;;;;;;;;;;;;;12.44;94.77;101027.38;5062127;28;19968;-60
2022/06/09 04:46:57;;;;;;;;;;;;;;;12.40;94.87;101031.38;5057043;28;19924;-61
2022/06/09 04:49:23;;;;;;;;;;;;;;;12.42;94.50;101034.69;5065519;28;20485;-62
2022/06/09 04:51:48;;;;;;;;;;;;;;;12.48;94.81;101047.31;5061218;28;19928;-62
2022/06/09 04:54:13;;;;;;;;;;;;;;;12.44;94.69;101034.53;5064089;28;20370;-61
2022/06/09 04:56:38;;;;;;;;;;;;;;;12.48;94.76;101039.34;5066794;28;19935;-61
2022/06/09 04:59:03;;;;;;;;;;;;;;;12.55;95.14;101046.63;5066822;28;19920;-60
2022/06/09 05:01:29;;;;;;;;;;;;;;;12.50;94.86;101047.97;5061644;28;20751;-61
2022/06/09 05:03:55;;;;;;;;;;;;;;;12.57;94.91;101055.28;5066171;28;20038;-61
2022/06/09 05:06:21;;;;;;;;;;;;;;;12.55;94.87;101059.94;5063690;28;20386;-61
2022/06/09 05:08:47;;;;;;;;;;;;;;;12.62;94.82;101058.25;5048232;28;19935;-61
2022/06/09 05:11:12;;;;;;;;;;;;;;;12.65;95.05;101071.22;5059837;28;20022;-61
2022/06/09 05:13:37;;;;;;;;;;;;;;;12.67;94.84;101079.88;5061041;28;19924;-61
2022/06/09 05:16:03;;;;;;;;;;;;;;;12.71;95.11;101080.34;5057948;28;19924;-61
2022/06/09 05:18:29;;;;;;;;;;;;;;;12.77;95.64;101091.16;5056505;28;19965;-61
2022/06/09 05:20:59;;;;;;;;;;;;;;;12.89;95.14;101098.78;5056084;28;19946;-62
2022/06/09 05:23:24;;;;;;;;;;;;;;;12.99;94.96;101099.44;5052378;28;19931;-61
2022/06/09 05:25:50;;;;;;;;;;;;;;;13.11;94.95;101097.22;5054239;28;20440;-62
2022/06/09 05:28:16;;;;;;;;;;;;;;;13.21;94.88;101094.34;5054042;28;19951;-61
2022/06/09 05:30:42;;;;;;;;;;;;;;;13.33;95.16;101092.16;5050646;28;20405;-62
2022/06/09 05:33:07;;;;;;;;;;;;;;;13.36;95.23;101104.28;5058966;28;19960;-62
2022/06/09 05:35:32;;;;;;;;;;;;;;;13.32;95.39;101109.94;5058200;28;20367;-61
2022/06/09 05:46:14;;;;;;;;;;;;;;;13.26;95.52;101121.28;5060810;28;19951;-61
2022/06/09 05:48:39;;;;;;;;;;;;;;;13.26;95.27;101131.94;5057130;28;19977;-61
2022/06/09 05:51:04;;;;;;;;;;;;;;;13.24;95.13;101133.97;5045547;28;19924;-61
2022/06/09 05:53:29;;;;;;;;;;;;;;;13.27;95.42;101141.59;5064629;28;20023;-61
2022/06/09 05:55:55;;;;;;;;;;;;;;;13.37;95.14;101135.25;5057871;28;20345;-61
2022/06/09 05:58:20;;;;;;;;;;;;;;;13.43;94.99;101134.56;5066371;28;19959;-61
2022/06/09 06:00:46;;;;;;;;;;;;;;;13.50;95.02;101143.53;5061516;28;19925;-60
2022/06/09 06:03:12;;;;;;;;;;;;;;;13.59;94.82;101147.81;5063944;28;20469;-61
2022/06/09 06:08:21;;;;;;;;;;;;;;;13.81;94.61;101160.56;5054398;28;19931;-62
2022/06/09 06:10:46;;;;;;;;;;;;;;;13.93;94.19;101159.16;5062232;28;19925;-61
2022/06/09 06:13:13;;;;;;;;;;;;;;;13.96;94.66;101164.13;5059770;28;19929;-61
2022/06/09 06:15:38;;;;;;;;;;;;;;;13.96;94.49;101169.44;5063901;28;19954;-61
2022/06/09 06:18:03;;;;;;;;;;;;;;;13.99;94.82;101173.59;5062410;28;19924;-61
2022/06/09 06:20:29;;;;;;;;;;;;;;;14.06;94.42;101179.88;5061558;28;19924;-62
2022/06/09 06:22:55;;;;;;;;;;;;;;;14.04;94.35;101181.06;5062229;28;19942;-61
2022/06/09 06:25:20;;;;;;;;;;;;;;;14.06;94.63;101182.56;5061373;28;19925;-61
2022/06/09 06:27:46;;;;;;;;;;;;;;;14.09;94.81;101187.53;5055197;28;19932;-61
2022/06/09 06:30:11;;;;;;;;;;;;;;;14.07;95.00;101184.22;5063328;28;19924;-61
2022/06/09 06:32:36;;;;;;;;;;;;;;;14.12;94.85;101189.84;5059937;28;20451;-61
2022/06/09 06:35:01;;;;;;;;;;;;;;;14.11;94.14;101195.34;5063377;28;19970;-60
2022/06/09 06:37:27;;;;;;;;;;;;;;;14.07;94.46;101194.06;5061679;28;20015;-61
2022/06/09 06:39:52;;;;;;;;;;;;;;;14.10;94.51;101197.19;5056505;28;20019;-62
2022/06/09 06:42:17;;;;;;;;;;;;;;;14.08;94.14;101204.56;5044856;28;19927;-62
2022/06/09 06:44:42;;;;;;;;;;;;;;;14.06;94.28;101211.88;5063135;28;20023;-61
2022/06/09 06:47:07;;;;;;;;;;;;;;;14.07;93.98;101216.19;5053103;28;19972;-61
2022/06/09 06:49:33;;;;;;;;;;;;;;;14.08;93.73;101222.38;5059371;28;20355;-63
2022/06/09 06:51:58;;;;;;;;;;;;;;;14.06;93.73;101233.22;5062820;28;19928;-60
2022/06/09 06:54:23;;;;;;;;;;;;;;;14.10;93.99;101231.88;5064189;28;20043;-61
2022/06/09 06:56:48;;;;;;;;;;;;;;;14.11;93.92;101236.19;5061302;28;19925;-60
2022/06/09 06:59:13;;;;;;;;;;;;;;;14.19;93.96;101235.31;5061617;28;20355;-61
2022/06/09 07:01:39;;;;;;;;;;;;;;;14.23;93.82;101233.97;5060740;28;19924;-60
2022/06/09 07:04:04;;;;;;;;;;;;;;;14.25;94.21;101241.78;5060828;28;19924;-61
2022/06/09 07:06:29;;;;;;;;;;;;;;;14.27;93.62;101234.44;5060970;28;19924;-61
2022/06/09 07:08:55;;;;;;;;;;;;;;;14.28;93.69;101241.44;5062741;28;19964;-61
2022/06/09 07:11:20;;;;;;;;;;;;;;;14.33;93.88;101249.75;5062656;28;20032;-61
2022/06/09 07:13:45;;;;;;;;;;;;;;;14.41;93.80;101256.03;5060614;28;19947;-60
2022/06/09 07:16:12;;;;;;;;;;;;;;;14.38;93.37;101262.53;5059837;28;19963;-62
2022/06/09 07:18:38;;;;;;;;;;;;;;;14.40;93.42;101260.53;5069998;28;20287;-61
2022/06/09 07:21:03;;;;;;;;;;;;;;;14.51;92.85;101260.13;5064958;28;19934;-62
2022/06/09 07:23:29;;;;;;;;;;;;;;;14.52;92.80;101268.97;5060533;28;19967;-61
2022/06/09 07:25:54;;;;;;;;;;;;;;;14.62;92.43;101284.75;5064150;28;20520;-61
2022/06/09 07:28:20;;;;;;;;;;;;;;;14.59;92.78;101280.59;5063657;28;20519;-61
2022/06/09 07:30:45;;;;;;;;;;;;;;;14.63;92.58;101276.56;5054716;28;19935;-62
2022/06/09 07:33:11;;;;;;;;;;;;;;;14.64;92.23;101280.88;5060291;28;19977;-62
2022/06/09 07:35:36;;;;;;;;;;;;;;;14.71;91.67;101281.00;5054447;28;19924;-59
2022/06/09 07:38:04;;;;;;;;;;;;;;;14.77;91.41;101282.16;5058354;28;19924;-61
2022/06/09 07:40:30;;;;;;;;;;;;;;;14.83;91.87;101278.78;5054199;28;20703;-60
2022/06/09 07:42:55;;;;;;;;;;;;;;;14.99;91.25;101279.66;5060436;28;19924;-61
2022/06/09 07:45:21;;;;;;;;;;;;;;;15.13;91.04;101273.53;5052092;28;19925;-61
2022/06/09 07:47:46;;;;;;;;;;;;;;;15.36;91.32;101277.97;5060297;28;19986;-61
2022/06/09 07:50:12;;;;;;;;;;;;;;;15.59;90.19;101280.56;5059392;28;20026;-61
2022/06/09 07:52:40;;;;;;;;;;;;;;;15.59;90.24;101291.25;5063273;28;20386;-62
2022/06/09 07:55:05;;;;;;;;;;;;;;;15.61;88.58;101288.41;5055686;28;19924;-63
2022/06/09 07:57:31;;;;;;;;;;;;;;;15.68;88.62;101283.97;5064565;28;20823;-62
2022/06/09 07:59:56;;;;;;;;;;;;;;;15.72;88.49;101290.63;5066208;28;19928;-61
2022/06/09 08:02:22;;;;;;;;;;;;;;;15.76;86.42;101300.94;5065356;28;19924;-61
2022/06/09 08:04:47;;;;;;;;;;;;;;;15.61;87.66;101299.09;5061776;28;19924;-61
2022/06/09 08:07:13;;;;;;;;;;;;;;;15.63;87.11;101310.44;5052461;28;19924;-61
2022/06/09 08:09:38;;;;;;;;;;;;;;;15.65;86.93;101305.75;5059576;28;19921;-62
2022/06/09 08:12:03;;;;;;;;;;;;;;;15.70;87.46;101308.69;5035095;28;19928;-63
2022/06/09 08:14:28;;;;;;;;;;;;;;;15.76;87.32;101311.63;5041042;28;19934;-62
2022/06/09 08:16:54;;;;;;;;;;;;;;;15.79;87.17;101305.94;5054350;28;19925;-61
2022/06/09 08:19:19;;;;;;;;;;;;;;;15.75;85.83;101310.81;5055531;28;19943;-61
2022/06/09 08:21:44;;;;;;;;;;;;;;;15.88;86.00;101326.19;5043636;28;19932;-60
2022/06/09 08:24:13;;;;;;;;;;;;;;;15.93;84.92;101323.84;5052917;28;20384;-61
2022/06/09 08:26:38;;;;;;;;;;;;;;;15.81;84.80;101333.31;5057111;28;19931;-61
2022/06/09 08:29:03;;;;;;;;;;;;;;;15.90;84.89;101334.88;5058378;28;19924;-60
2022/06/09 08:31:29;;;;;;;;;;;;;;;15.83;84.80;101339.28;5053647;28;20366;-61
2022/06/09 08:33:54;;;;;;;;;;;;;;;15.87;84.70;101340.59;5061282;28;20023;-63
2022/06/09 08:36:19;;;;;;;;;;;;;;;15.92;84.40;101343.56;5061058;28;19928;-60
2022/06/09 08:38:46;;;;;;;;;;;;;;;15.90;84.15;101345.59;5063289;28;19928;-63
2022/06/09 08:41:17;;;;;;;;;;;;;;;15.94;84.19;101351.41;5062121;28;19924;-61
2022/06/09 08:43:42;;;;;;;;;;;;;;;16.09;83.76;101351.41;5061113;28;19968;-63
2022/06/09 08:46:21;;;;;;;;;;;;;;;16.25;83.81;101348.50;5061918;28;19963;-61
2022/06/09 08:48:47;;;;;;;;;;;;;;;16.46;81.77;101354.94;5053777;28;19928;-60
2022/06/09 08:51:15;;;;;;;;;;;;;;;16.50;82.38;101358.94;5060615;28;20440;-60
2022/06/09 08:53:52;;;;;;;;;;;;;;;16.52;82.94;101359.56;5063466;28;19920;-60
2022/06/09 08:56:26;;;;;;;;;;;;;;;16.59;83.14;101359.63;5054096;28;19924;-63
2022/06/09 08:59:24;;;;;;;;;;;;;;;16.63;81.04;101355.53;5054487;28;19925;-60
2022/06/09 09:01:58;;;;;;;;;;;;;;;16.62;82.53;101371.81;5002949;28;20371;-60
2022/06/09 09:04:39;;;;;;;;;;;;;;;16.62;82.41;101369.16;5055029;28;19936;-61
2022/06/09 09:07:10;;;;;;;;;;;;;;;16.57;82.35;101376.91;5060322;28;19932;-60
2022/06/09 09:09:36;;;;;;;;;;;;;;;16.59;82.27;101372.19;5064361;28;20442;-61
2022/06/09 09:12:04;;;;;;;;;;;;;;;16.58;80.56;101381.25;5063648;28;20011;-62
2022/06/09 09:14:34;;;;;;;;;;;;;;;16.55;81.12;101374.41;5066839;28;19920;-61
2022/06/09 09:17:12;;;;;;;;;;;;;;;16.56;81.15;101385.94;5062143;28;19928;-60
2022/06/09 09:19:37;;;;;;;;;;;;;;;16.56;81.03;101385.94;5058162;28;19960;-60
2022/06/09 09:22:05;;;;;;;;;;;;;;;16.57;81.51;101387.63;5052715;28;20421;-62
2022/06/09 09:24:39;;;;;;;;;;;;;;;16.66;81.09;101391.81;5058700;28;20367;-62
2022/06/09 09:27:16;;;;;;;;;;;;;;;16.73;80.03;101392.72;5062016;28;20386;-61
2022/06/09 09:29:45;;;;;;;;;;;;;;;16.63;80.92;101398.38;5057900;28;19930;-62
2022/06/09 09:32:26;;;;;;;;;;;;;;;16.60;81.22;101397.94;5057948;28;19974;-62
2022/06/09 09:34:52;;;;;;;;;;;;;;;16.62;81.92;101403.94;5062112;28;19921;-61
2022/06/09 09:37:36;;;;;;;;;;;;;;;16.68;80.96;101405.88;5061032;28;19947;-62
2022/06/09 09:40:11;;;;;;;;;;;;;;;16.71;81.45;101405.47;5057059;28;20049;-62
2022/06/09 09:42:37;;;;;;;;;;;;;;;16.76;81.86;101413.78;5056179;28;20072;-63
2022/06/09 09:45:02;;;;;;;;;;;;;;;16.80;81.11;101409.72;5056706;28;19925;-62
2022/06/09 09:47:29;;;;;;;;;;;;;;;16.80;81.27;101420.44;5062329;28;20597;-62
2022/06/09 09:49:57;;;;;;;;;;;;;;;16.78;81.29;101410.94;5064659;28;19931;-60
2022/06/09 09:52:43;;;;;;;;;;;;;;;16.81;80.73;101415.88;5059800;28;19925;-62
2022/06/09 09:55:27;;;;;;;;;;;;;;;16.88;80.80;101424.00;5063180;28;19936;-61
2022/06/09 09:58:08;;;;;;;;;;;;;;;16.90;80.67;101422.81;5061904;28;19971;-61
2022/06/09 10:00:33;;;;;;;;;;;;;;;16.98;80.78;101431.72;5062013;28;20420;-61
2022/06/09 10:08:35;;;;;;;;;;;;;;;16.91;81.36;101447.72;5057934;28;19931;-61
2022/06/09 10:11:01;;;;;;;;;;;;;;;16.89;80.57;101460.47;5053116;28;20099;-61
2022/06/09 10:13:30;;;;;;;;;;;;;;;16.74;81.67;101464.03;5058373;28;20482;-61
2022/06/09 10:15:56;;;;;;;;;;;;;;;16.53;83.11;101454.91;5061367;28;20461;-61
2022/06/09 10:18:22;;;;;;;;;;;;;;;16.45;83.04;101460.38;5056494;28;19928;-60
2022/06/09 10:21:02;;;;;;;;;;;;;;;16.35;83.88;101455.31;5059512;28;20337;-63
2022/06/09 10:23:37;;;;;;;;;;;;;;;16.27;83.73;101456.22;5045724;28;19967;-62
2022/06/09 10:26:02;;;;;;;;;;;;;;;16.21;84.00;101459.63;5058622;28;19960;-61
2022/06/09 10:28:28;;;;;;;;;;;;;;;16.21;84.88;101459.63;5062222;28;20497;-64
2022/06/09 10:31:16;;;;;;;;;;;;;;;16.22;85.14;101466.63;5058246;28;20493;-61
2022/06/09 10:33:51;;;;;;;;;;;;;;;16.23;84.68;101470.97;5060979;28;20018;-61
2022/06/09 10:36:22;;;;;;;;;;;;;;;16.30;84.90;101467.56;5056326;28;20015;-63
2022/06/09 10:38:50;;;;;;;;;;;;;;;16.43;84.45;101477.63;5056881;28;20438;-63
2022/06/09 10:41:21;;;;;;;;;;;;;;;16.51;85.38;101470.34;5046008;28;19924;-62
2022/06/09 10:44:08;;;;;;;;;;;;;;;16.66;86.51;101470.31;5054920;28;20441;-61
2022/06/09 10:55:14;;;;;;;;;;;;;;;16.84;85.70;101474.44;5064228;28;19935;-61
2022/06/09 10:55:31;;;;;;;;;;;;;;;17.40;84.39;101477.53;5068593;28;19930;-63
2022/06/09 10:58:00;;;;;;;;;;;;;;;17.63;84.34;101479.19;5081140;28;19924;-62
2022/06/09 11:00:46;;;;;;;;;;;;;;;17.82;82.97;101469.66;5069623;28;20363;-60
2022/06/09 11:03:14;;;;;;;;;;;;;;;17.91;83.82;101483.75;5065705;28;19924;-60
2022/06/09 11:05:39;;;;;;;;;;;;;;;18.05;83.42;101485.50;5063021;28;19935;-62
2022/06/09 11:08:36;;;;;;;;;;;;;;;18.22;82.79;101491.44;5068206;28;19932;-60
2022/06/09 11:11:20;;;;;;;;;;;;;;;18.25;82.40;101485.66;5036117;28;19928;-60
2022/06/09 11:13:52;;;;;;;;;;;;;;;18.33;82.69;101487.38;5061330;28;20377;-61
2022/06/09 11:16:22;;;;;;;;;;;;;;;18.51;81.81;101499.44;5066797;28;19924;-62
2022/06/09 11:18:47;;;;;;;;;;;;;;;18.69;81.45;101496.22;5068990;28;19931;-61
2022/06/09 11:21:25;;;;;;;;;;;;;;;18.79;80.56;101499.38;5067079;28;19936;-62
2022/06/09 11:23:52;;;;;;;;;;;;;;;18.77;80.29;101497.91;5061699;28;19925;-61
2022/06/09 11:26:17;;;;;;;;;;;;;;;18.61;74.65;101497.25;5063581;28;20503;-61
2022/06/09 11:29:01;;;;;;;;;;;;;;;18.51;79.31;101500.25;5057080;28;19928;-62
2022/06/09 11:31:36;;;;;;;;;;;;;;;18.32;77.16;101500.97;5062322;28;19979;-64
2022/06/09 11:34:04;;;;;;;;;;;;;;;18.18;77.92;101500.06;5051331;28;19960;-61
2022/06/09 11:36:35;;;;;;;;;;;;;;;18.10;79.59;101514.44;5061272;28;19928;-62
2022/06/09 11:39:17;;;;;;;;;;;;;;;18.10;75.87;101512.59;5061211;28;19932;-62
2022/06/09 11:42:02;;;;;;;;;;;;;;;17.87;78.20;101516.31;5054796;28;19935;-61
2022/06/09 11:44:35;;;;;;;;;;;;;;;17.85;76.93;101515.69;5055362;28;19967;-63
2022/06/09 11:47:03;;;;;;;;;;;;;;;17.61;73.54;101520.44;5053420;28;19924;-63
2022/06/09 11:49:33;;;;;;;;;;;;;;;17.52;77.37;101528.81;5060786;28;19924;-61
2022/06/09 11:52:03;;;;;;;;;;;;;;;17.45;77.26;101528.72;5060592;28;20485;-61
2022/06/09 11:54:47;;;;;;;;;;;;;;;17.48;77.39;101528.34;5054901;28;20061;-62
2022/06/09 11:57:19;;;;;;;;;;;;;;;17.45;77.62;101534.09;5054843;28;20011;-62
2022/06/09 11:59:53;;;;;;;;;;;;;;;17.47;76.87;101537.44;5061010;28;19932;-58
2022/06/09 12:02:21;;;;;;;;;;;;;;;17.43;77.36;101547.66;5061080;28;19928;-61
2022/06/09 12:04:58;;;;;;;;;;;;;;;17.45;77.85;101547.50;5054724;28;19932;-62
2022/06/09 12:07:30;;;;;;;;;;;;;;;17.49;77.92;101548.78;5052878;28;19931;-61
2022/06/09 12:10:13;;;;;;;;;;;;;;;17.44;77.70;101553.88;5063657;28;20330;-61
2022/06/09 12:12:40;;;;;;;;;;;;;;;17.44;78.54;101543.16;5055375;28;20534;-61
2022/06/09 12:15:16;;;;;;;;;;;;;;;17.39;77.98;101550.94;5062682;28;19924;-60
2022/06/09 12:18:06;;;;;;;;;;;;;;;17.40;77.71;101560.63;5063024;28;19924;-61
2022/06/09 12:20:37;;;;;;;;;;;;;;;17.30;78.26;101553.75;5052368;28;19993;-62
2022/06/09 12:23:19;;;;;;;;;;;;;;;17.28;77.70;101555.78;5063021;28;19916;-61
2022/06/09 12:25:45;;;;;;;;;;;;;;;17.22;77.44;101556.50;5060556;28;19929;-62
2022/06/09 12:28:29;;;;;;;;;;;;;;;17.20;76.52;101555.88;5063086;28;20015;-61
2022/06/09 12:31:06;;;;;;;;;;;;;;;17.15;77.49;101560.97;5063185;28;20527;-61
2022/06/09 12:33:32;;;;;;;;;;;;;;;17.14;77.67;101564.66;5063069;28;19932;-61
2022/06/09 12:36:03;;;;;;;;;;;;;;;17.17;76.26;101577.72;5060510;28;19925;-61
2022/06/09 12:38:34;;;;;;;;;;;;;;;17.14;77.01;101570.88;5060660;28;19924;-61
2022/06/09 12:41:07;;;;;;;;;;;;;;;17.19;77.54;101567.63;5062943;28;19979;-61
2022/06/09 12:43:35;;;;;;;;;;;;;;;17.27;77.51;101580.09;5062720;28;20379;-61
2022/06/09 12:46:03;;;;;;;;;;;;;;;17.49;78.00;101572.91;5062181;28;20786;-61
2022/06/09 12:48:29;;;;;;;;;;;;;;;17.65;77.25;101571.84;5062495;28;19920;-60
2022/06/09 12:50:55;;;;;;;;;;;;;;;17.69;76.85;101583.84;5057747;28;19925;-61
2022/06/09 12:53:31;;;;;;;;;;;;;;;17.64;75.75;101588.94;5054679;28;19920;-60
2022/06/09 12:55:59;;;;;;;;;;;;;;;17.65;76.78;101598.66;5062229;28;19924;-60
2022/06/09 12:58:24;;;;;;;;;;;;;;;17.59;77.07;101594.91;5060264;28;20517;-62
2022/06/09 13:00:52;;;;;;;;;;;;;;;17.54;76.99;101597.31;5062923;28;20019;-61
2022/06/09 13:03:22;;;;;;;;;;;;;;;17.49;77.46;101597.03;5061836;28;19924;-61